sensor_id;sensor_type;location;lat;lon;timestamp;P1;durP1;ratioP1;P2;durP2;ratioP2
72949;SDS011;64868;45.710;9.590;2024-03-02T00:02:44;9.15;;;5.03;;
72949;SDS011;64868;45.710;9.590;2024-03-02T00:11:00;7.82;;;4.40;;
72949;SDS011;64868;45.710;9.590;2024-03-02T00:13:30;7.85;;;4.38;;
72949;SDS011;64868;45.710;9.590;2024-03-02T00:16:00;9.32;;;4.82;;
72949;SDS011;64868;45.710;9.590;2024-03-02T00:18:27;7.80;;;3.83;;
72949;SDS011;64868;45.710;9.590;2024-03-02T00:23:41;7.97;;;4.20;;
72949;SDS011;64868;45.710;9.590;2024-03-02T00:26:14;8.25;;;3.92;;
72949;SDS011;64868;45.710;9.590;2024-03-02T00:31:22;9.52;;;4.30;;
72949;SDS011;64868;45.710;9.590;2024-03-02T00:33:50;9.50;;;4.32;;
72949;SDS011;64868;45.710;9.590;2024-03-02T00:36:16;7.85;;;4.07;;
72949;SDS011;64868;45.710;9.590;2024-03-02T00:38:52;10.45;;;4.28;;
72949;SDS011;64868;45.710;9.590;2024-03-02T00:44:06;8.48;;;4.35;;
72949;SDS011;64868;45.710;9.590;2024-03-02T00:46:50;8.35;;;4.00;;
72949;SDS011;64868;45.710;9.590;2024-03-02T00:49:25;7.90;;;4.25;;
72949;SDS011;64868;45.710;9.590;2024-03-02T00:51:54;8.00;;;3.83;;
72949;SDS011;64868;45.710;9.590;2024-03-02T00:54:21;7.97;;;4.43;;
72949;SDS011;64868;45.710;9.590;2024-03-02T00:56:52;9.63;;;4.65;;
72949;SDS011;64868;45.710;9.590;2024-03-02T00:59:34;9.00;;;4.70;;
72949;SDS011;64868;45.710;9.590;2024-03-02T01:02:12;9.43;;;5.00;;
72949;SDS011;64868;45.710;9.590;2024-03-02T01:10:54;9.68;;;5.00;;
72949;SDS011;64868;45.710;9.590;2024-03-02T01:13:35;9.65;;;5.20;;
72949;SDS011;64868;45.710;9.590;2024-03-02T01:21:44;8.27;;;4.72;;
72949;SDS011;64868;45.710;9.590;2024-03-02T01:24:10;8.07;;;4.53;;
72949;SDS011;64868;45.710;9.590;2024-03-02T01:26:42;9.20;;;4.55;;
72949;SDS011;64868;45.710;9.590;2024-03-02T01:35:07;8.10;;;4.53;;
72949;SDS011;64868;45.710;9.590;2024-03-02T01:37:44;9.55;;;4.93;;
72949;SDS011;64868;45.710;9.590;2024-03-02T01:40:24;8.27;;;4.45;;
72949;SDS011;64868;45.710;9.590;2024-03-02T01:45:44;10.30;;;4.32;;
72949;SDS011;64868;45.710;9.590;2024-03-02T01:48:10;12.80;;;4.95;;
72949;SDS011;64868;45.710;9.590;2024-03-02T01:50:41;10.23;;;4.60;;
72949;SDS011;64868;45.710;9.590;2024-03-02T01:53:20;9.48;;;4.95;;
72949;SDS011;64868;45.710;9.590;2024-03-02T01:55:46;9.07;;;5.05;;
72949;SDS011;64868;45.710;9.590;2024-03-02T01:58:11;9.38;;;5.05;;
72949;SDS011;64868;45.710;9.590;2024-03-02T02:00:43;9.35;;;4.78;;
72949;SDS011;64868;45.710;9.590;2024-03-02T02:03:11;8.05;;;4.85;;
72949;SDS011;64868;45.710;9.590;2024-03-02T02:05:50;8.07;;;4.53;;
72949;SDS011;64868;45.710;9.590;2024-03-02T02:11:20;10.00;;;4.70;;
72949;SDS011;64868;45.710;9.590;2024-03-02T02:13:47;8.77;;;4.38;;
72949;SDS011;64868;45.710;9.590;2024-03-02T02:16:26;11.32;;;4.65;;
72949;SDS011;64868;45.710;9.590;2024-03-02T02:27:31;8.15;;;4.40;;
72949;SDS011;64868;45.710;9.590;2024-03-02T02:29:57;9.65;;;4.60;;
72949;SDS011;64868;45.710;9.590;2024-03-02T02:32:25;7.80;;;4.18;;
72949;SDS011;64868;45.710;9.590;2024-03-02T02:37:30;7.15;;;3.92;;
72949;SDS011;64868;45.710;9.590;2024-03-02T02:39:56;7.90;;;4.22;;
72949;SDS011;64868;45.710;9.590;2024-03-02T02:42:31;8.07;;;3.88;;
72949;SDS011;64868;45.710;9.590;2024-03-02T02:47:55;8.57;;;4.35;;
72949;SDS011;64868;45.710;9.590;2024-03-02T02:50:28;10.05;;;5.53;;
72949;SDS011;64868;45.710;9.590;2024-03-02T02:52:56;10.95;;;6.00;;
72949;SDS011;64868;45.710;9.590;2024-03-02T02:55:21;9.27;;;5.22;;
72949;SDS011;64868;45.710;9.590;2024-03-02T02:57:47;11.57;;;5.05;;
72949;SDS011;64868;45.710;9.590;2024-03-02T03:00:13;9.10;;;5.13;;
72949;SDS011;64868;45.710;9.590;2024-03-02T03:05:45;8.77;;;4.20;;
72949;SDS011;64868;45.710;9.590;2024-03-02T03:19:32;10.40;;;3.63;;
72949;SDS011;64868;45.710;9.590;2024-03-02T03:22:05;7.75;;;3.95;;
72949;SDS011;64868;45.710;9.590;2024-03-02T03:27:47;8.23;;;4.03;;
72949;SDS011;64868;45.710;9.590;2024-03-02T03:32:48;9.68;;;4.47;;
72949;SDS011;64868;45.710;9.590;2024-03-02T03:35:28;8.77;;;4.53;;
72949;SDS011;64868;45.710;9.590;2024-03-02T03:40:32;8.85;;;4.35;;
72949;SDS011;64868;45.710;9.590;2024-03-02T03:42:58;10.23;;;4.40;;
72949;SDS011;64868;45.710;9.590;2024-03-02T03:45:39;7.43;;;3.92;;
72949;SDS011;64868;45.710;9.590;2024-03-02T03:56:47;7.93;;;4.40;;
72949;SDS011;64868;45.710;9.590;2024-03-02T03:59:16;8.35;;;4.30;;
72949;SDS011;64868;45.710;9.590;2024-03-02T04:01:43;8.35;;;4.13;;
72949;SDS011;64868;45.710;9.590;2024-03-02T04:04:16;7.68;;;4.28;;
72949;SDS011;64868;45.710;9.590;2024-03-02T04:09:38;7.50;;;4.07;;
72949;SDS011;64868;45.710;9.590;2024-03-02T04:12:22;9.18;;;4.50;;
72949;SDS011;64868;45.710;9.590;2024-03-02T04:14:48;12.45;;;4.70;;
72949;SDS011;64868;45.710;9.590;2024-03-02T04:17:21;9.80;;;4.75;;
72949;SDS011;64868;45.710;9.590;2024-03-02T04:19:53;9.45;;;4.65;;
72949;SDS011;64868;45.710;9.590;2024-03-02T04:22:21;10.57;;;5.38;;
72949;SDS011;64868;45.710;9.590;2024-03-02T04:24:54;9.80;;;4.97;;
72949;SDS011;64868;45.710;9.590;2024-03-02T04:27:22;9.98;;;5.15;;
72949;SDS011;64868;45.710;9.590;2024-03-02T04:30:00;9.18;;;5.05;;
72949;SDS011;64868;45.710;9.590;2024-03-02T04:32:27;10.05;;;4.90;;
72949;SDS011;64868;45.710;9.590;2024-03-02T04:35:00;9.50;;;5.07;;
72949;SDS011;64868;45.710;9.590;2024-03-02T04:37:40;10.35;;;5.32;;
72949;SDS011;64868;45.710;9.590;2024-03-02T04:40:06;9.13;;;5.55;;
72949;SDS011;64868;45.710;9.590;2024-03-02T04:45:42;8.52;;;4.90;;
72949;SDS011;64868;45.710;9.590;2024-03-02T04:48:21;10.43;;;5.43;;
72949;SDS011;64868;45.710;9.590;2024-03-02T04:50:47;9.93;;;5.15;;
72949;SDS011;64868;45.710;9.590;2024-03-02T04:53:31;8.85;;;5.07;;
72949;SDS011;64868;45.710;9.590;2024-03-02T04:55:56;9.65;;;5.32;;
72949;SDS011;64868;45.710;9.590;2024-03-02T05:04:33;9.52;;;5.47;;
72949;SDS011;64868;45.710;9.590;2024-03-02T05:07:13;10.20;;;5.68;;
72949;SDS011;64868;45.710;9.590;2024-03-02T05:09:39;10.57;;;6.50;;
72949;SDS011;64868;45.710;9.590;2024-03-02T05:12:09;10.70;;;5.80;;
72949;SDS011;64868;45.710;9.590;2024-03-02T05:15:09;11.70;;;6.22;;
72949;SDS011;64868;45.710;9.590;2024-03-02T05:17:36;10.40;;;6.05;;
72949;SDS011;64868;45.710;9.590;2024-03-02T05:20:04;11.57;;;6.63;;
72949;SDS011;64868;45.710;9.590;2024-03-02T05:22:39;11.68;;;6.18;;
72949;SDS011;64868;45.710;9.590;2024-03-02T05:25:07;11.32;;;6.88;;
72949;SDS011;64868;45.710;9.590;2024-03-02T05:30:56;12.23;;;7.15;;
72949;SDS011;64868;45.710;9.590;2024-03-02T05:41:58;12.52;;;7.50;;
72949;SDS011;64868;45.710;9.590;2024-03-02T05:44:25;13.60;;;7.95;;
72949;SDS011;64868;45.710;9.590;2024-03-02T05:46:53;15.25;;;8.35;;
72949;SDS011;64868;45.710;9.590;2024-03-02T05:49:18;16.77;;;9.27;;
72949;SDS011;64868;45.710;9.590;2024-03-02T05:51:45;15.20;;;8.98;;
72949;SDS011;64868;45.710;9.590;2024-03-02T05:54:13;13.73;;;8.77;;
72949;SDS011;64868;45.710;9.590;2024-03-02T05:56:40;13.95;;;8.75;;
72949;SDS011;64868;45.710;9.590;2024-03-02T05:59:06;14.38;;;8.27;;
72949;SDS011;64868;45.710;9.590;2024-03-02T06:04:19;15.77;;;7.90;;
72949;SDS011;64868;45.710;9.590;2024-03-02T06:06:46;12.65;;;7.53;;
72949;SDS011;64868;45.710;9.590;2024-03-02T06:09:16;15.93;;;7.43;;
72949;SDS011;64868;45.710;9.590;2024-03-02T06:11:56;14.43;;;7.32;;
72949;SDS011;64868;45.710;9.590;2024-03-02T06:14:24;11.40;;;6.55;;
72949;SDS011;64868;45.710;9.590;2024-03-02T06:19:49;11.23;;;7.15;;
72949;SDS011;64868;45.710;9.590;2024-03-02T06:22:21;11.40;;;7.18;;
72949;SDS011;64868;45.710;9.590;2024-03-02T06:24:50;13.65;;;7.68;;
72949;SDS011;64868;45.710;9.590;2024-03-02T06:27:16;13.57;;;7.47;;
72949;SDS011;64868;45.710;9.590;2024-03-02T06:29:41;12.55;;;7.68;;
72949;SDS011;64868;45.710;9.590;2024-03-02T06:32:08;14.32;;;7.72;;
72949;SDS011;64868;45.710;9.590;2024-03-02T06:37:15;16.65;;;7.45;;
72949;SDS011;64868;45.710;9.590;2024-03-02T06:39:41;13.95;;;7.82;;
72949;SDS011;64868;45.710;9.590;2024-03-02T06:42:06;12.80;;;7.82;;
72949;SDS011;64868;45.710;9.590;2024-03-02T06:44:33;15.45;;;8.40;;
72949;SDS011;64868;45.710;9.590;2024-03-02T06:46:59;30.58;;;18.52;;
72949;SDS011;64868;45.710;9.590;2024-03-02T06:49:25;22.27;;;14.30;;
72949;SDS011;64868;45.710;9.590;2024-03-02T06:51:51;19.10;;;11.32;;
72949;SDS011;64868;45.710;9.590;2024-03-02T06:54:30;15.07;;;9.68;;
72949;SDS011;64868;45.710;9.590;2024-03-02T07:03:12;12.65;;;8.00;;
72949;SDS011;64868;45.710;9.590;2024-03-02T07:05:38;12.25;;;7.00;;
72949;SDS011;64868;45.710;9.590;2024-03-02T07:08:05;12.52;;;7.13;;
72949;SDS011;64868;45.710;9.590;2024-03-02T07:10:34;10.73;;;6.38;;
72949;SDS011;64868;45.710;9.590;2024-03-02T07:13:01;12.05;;;6.82;;
72949;SDS011;64868;45.710;9.590;2024-03-02T07:24:27;12.88;;;8.18;;
72949;SDS011;64868;45.710;9.590;2024-03-02T07:26:55;15.35;;;8.32;;
72949;SDS011;64868;45.710;9.590;2024-03-02T07:29:38;14.13;;;8.75;;
72949;SDS011;64868;45.710;9.590;2024-03-02T07:32:11;16.92;;;9.55;;
72949;SDS011;64868;45.710;9.590;2024-03-02T07:34:39;16.23;;;9.48;;
72949;SDS011;64868;45.710;9.590;2024-03-02T07:37:09;17.73;;;9.73;;
72949;SDS011;64868;45.710;9.590;2024-03-02T07:39:43;15.95;;;9.20;;
72949;SDS011;64868;45.710;9.590;2024-03-02T07:42:09;16.27;;;9.27;;
72949;SDS011;64868;45.710;9.590;2024-03-02T07:44:48;17.08;;;9.68;;
72949;SDS011;64868;45.710;9.590;2024-03-02T07:47:20;12.88;;;8.15;;
72949;SDS011;64868;45.710;9.590;2024-03-02T07:49:46;14.25;;;8.73;;
72949;SDS011;64868;45.710;9.590;2024-03-02T07:55:40;15.00;;;8.20;;
72949;SDS011;64868;45.710;9.590;2024-03-02T07:58:06;24.48;;;10.88;;
72949;SDS011;64868;45.710;9.590;2024-03-02T08:03:37;24.90;;;11.88;;
72949;SDS011;64868;45.710;9.590;2024-03-02T08:06:03;42.17;;;17.13;;
72949;SDS011;64868;45.710;9.590;2024-03-02T08:08:30;35.53;;;17.30;;
72949;SDS011;64868;45.710;9.590;2024-03-02T08:11:14;26.20;;;12.95;;
72949;SDS011;64868;45.710;9.590;2024-03-02T08:13:42;19.30;;;10.18;;
72949;SDS011;64868;45.710;9.590;2024-03-02T08:19:12;19.52;;;10.05;;
72949;SDS011;64868;45.710;9.590;2024-03-02T08:21:56;16.40;;;10.02;;
72949;SDS011;64868;45.710;9.590;2024-03-02T08:24:24;14.20;;;8.65;;
72949;SDS011;64868;45.710;9.590;2024-03-02T08:32:08;14.65;;;7.45;;
72949;SDS011;64868;45.710;9.590;2024-03-02T08:34:46;11.65;;;7.25;;
72949;SDS011;64868;45.710;9.590;2024-03-02T08:37:20;13.88;;;6.60;;
72949;SDS011;64868;45.710;9.590;2024-03-02T08:39:46;10.93;;;6.55;;
72949;SDS011;64868;45.710;9.590;2024-03-02T08:42:13;12.25;;;7.15;;
72949;SDS011;64868;45.710;9.590;2024-03-02T08:44:39;13.10;;;6.78;;
72949;SDS011;64868;45.710;9.590;2024-03-02T08:47:04;12.63;;;7.38;;
72949;SDS011;64868;45.710;9.590;2024-03-02T08:49:36;12.77;;;7.57;;
72949;SDS011;64868;45.710;9.590;2024-03-02T08:52:01;15.25;;;7.65;;
72949;SDS011;64868;45.710;9.590;2024-03-02T08:54:35;20.30;;;11.77;;
72949;SDS011;64868;45.710;9.590;2024-03-02T08:57:01;17.85;;;9.65;;
72949;SDS011;64868;45.710;9.590;2024-03-02T08:59:27;16.27;;;9.25;;
72949;SDS011;64868;45.710;9.590;2024-03-02T09:01:59;15.65;;;8.18;;
72949;SDS011;64868;45.710;9.590;2024-03-02T09:04:25;13.55;;;7.30;;
72949;SDS011;64868;45.710;9.590;2024-03-02T09:06:53;13.85;;;7.88;;
72949;SDS011;64868;45.710;9.590;2024-03-02T09:09:19;13.38;;;7.50;;
72949;SDS011;64868;45.710;9.590;2024-03-02T09:11:48;12.68;;;7.22;;
72949;SDS011;64868;45.710;9.590;2024-03-02T09:14:15;15.90;;;7.47;;
72949;SDS011;64868;45.710;9.590;2024-03-02T09:16:43;13.07;;;7.82;;
72949;SDS011;64868;45.710;9.590;2024-03-02T09:19:09;15.00;;;8.40;;
72949;SDS011;64868;45.710;9.590;2024-03-02T09:21:38;13.85;;;8.25;;
72949;SDS011;64868;45.710;9.590;2024-03-02T09:24:09;14.05;;;8.55;;
72949;SDS011;64868;45.710;9.590;2024-03-02T09:26:40;14.77;;;8.68;;
72949;SDS011;64868;45.710;9.590;2024-03-02T09:29:10;20.00;;;11.55;;
72949;SDS011;64868;45.710;9.590;2024-03-02T09:31:42;18.45;;;9.63;;
72949;SDS011;64868;45.710;9.590;2024-03-02T09:34:14;15.70;;;8.43;;
72949;SDS011;64868;45.710;9.590;2024-03-02T09:36:44;15.90;;;8.85;;
72949;SDS011;64868;45.710;9.590;2024-03-02T09:39:11;15.98;;;8.75;;
72949;SDS011;64868;45.710;9.590;2024-03-02T09:41:39;13.60;;;8.57;;
72949;SDS011;64868;45.710;9.590;2024-03-02T09:44:11;16.02;;;8.82;;
72949;SDS011;64868;45.710;9.590;2024-03-02T09:49:59;17.65;;;9.60;;
72949;SDS011;64868;45.710;9.590;2024-03-02T09:55:15;17.00;;;9.73;;
72949;SDS011;64868;45.710;9.590;2024-03-02T10:00:30;13.88;;;8.52;;
72949;SDS011;64868;45.710;9.590;2024-03-02T10:08:56;17.08;;;9.70;;
72949;SDS011;64868;45.710;9.590;2024-03-02T10:11:29;15.15;;;9.18;;
72949;SDS011;64868;45.710;9.590;2024-03-02T10:16:28;19.85;;;10.50;;
72949;SDS011;64868;45.710;9.590;2024-03-02T10:25:49;17.73;;;10.52;;
72949;SDS011;64868;45.710;9.590;2024-03-02T10:28:21;17.17;;;10.27;;
72949;SDS011;64868;45.710;9.590;2024-03-02T10:30:48;15.27;;;9.38;;
72949;SDS011;64868;45.710;9.590;2024-03-02T10:33:17;15.57;;;8.60;;
72949;SDS011;64868;45.710;9.590;2024-03-02T10:35:45;15.43;;;9.27;;
72949;SDS011;64868;45.710;9.590;2024-03-02T10:38:12;16.67;;;8.70;;
72949;SDS011;64868;45.710;9.590;2024-03-02T10:40:39;13.70;;;8.70;;
72949;SDS011;64868;45.710;9.590;2024-03-02T10:43:05;14.30;;;9.18;;
72949;SDS011;64868;45.710;9.590;2024-03-02T10:45:39;14.75;;;9.25;;
72949;SDS011;64868;45.710;9.590;2024-03-02T10:48:06;14.07;;;8.40;;
72949;SDS011;64868;45.710;9.590;2024-03-02T10:50:50;18.88;;;9.40;;
72949;SDS011;64868;45.710;9.590;2024-03-02T10:56:31;18.10;;;9.75;;
72949;SDS011;64868;45.710;9.590;2024-03-02T11:01:42;16.48;;;10.45;;
72949;SDS011;64868;45.710;9.590;2024-03-02T11:04:10;13.13;;;9.40;;
72949;SDS011;64868;45.710;9.590;2024-03-02T11:06:46;12.70;;;7.88;;
72949;SDS011;64868;45.710;9.590;2024-03-02T11:09:18;12.50;;;7.03;;
72949;SDS011;64868;45.710;9.590;2024-03-02T11:11:48;12.82;;;7.50;;
72949;SDS011;64868;45.710;9.590;2024-03-02T11:14:23;14.52;;;8.02;;
72949;SDS011;64868;45.710;9.590;2024-03-02T11:16:56;13.30;;;7.60;;
72949;SDS011;64868;45.710;9.590;2024-03-02T11:19:36;15.23;;;7.50;;
72949;SDS011;64868;45.710;9.590;2024-03-02T11:22:06;12.50;;;7.78;;
72949;SDS011;64868;45.710;9.590;2024-03-02T11:36:04;14.40;;;7.40;;
72949;SDS011;64868;45.710;9.590;2024-03-02T11:41:42;14.82;;;8.20;;
72949;SDS011;64868;45.710;9.590;2024-03-02T11:47:15;12.45;;;7.13;;
72949;SDS011;64868;45.710;9.590;2024-03-02T11:49:43;14.23;;;6.80;;
72949;SDS011;64868;45.710;9.590;2024-03-02T11:55:40;11.88;;;5.63;;
72949;SDS011;64868;45.710;9.590;2024-03-02T11:58:34;10.95;;;5.90;;
72949;SDS011;64868;45.710;9.590;2024-03-02T12:01:02;10.80;;;5.28;;
72949;SDS011;64868;45.710;9.590;2024-03-02T12:03:46;11.02;;;5.50;;
72949;SDS011;64868;45.710;9.590;2024-03-02T12:06:16;12.15;;;6.22;;
72949;SDS011;64868;45.710;9.590;2024-03-02T12:09:09;12.73;;;6.13;;
72949;SDS011;64868;45.710;9.590;2024-03-02T12:14:49;13.65;;;7.70;;
72949;SDS011;64868;45.710;9.590;2024-03-02T12:17:38;12.80;;;7.63;;
72949;SDS011;64868;45.710;9.590;2024-03-02T12:20:45;12.52;;;6.68;;
72949;SDS011;64868;45.710;9.590;2024-03-02T12:23:34;13.73;;;7.50;;
72949;SDS011;64868;45.710;9.590;2024-03-02T12:26:41;21.35;;;9.20;;
72949;SDS011;64868;45.710;9.590;2024-03-02T12:29:29;16.15;;;7.97;;
72949;SDS011;64868;45.710;9.590;2024-03-02T12:32:16;13.10;;;7.38;;
72949;SDS011;64868;45.710;9.590;2024-03-02T12:34:51;12.02;;;6.07;;
72949;SDS011;64868;45.710;9.590;2024-03-02T12:43:53;11.13;;;5.05;;
72949;SDS011;64868;45.710;9.590;2024-03-02T12:49:55;15.38;;;5.80;;
72949;SDS011;64868;45.710;9.590;2024-03-02T12:59:32;9.98;;;4.18;;
72949;SDS011;64868;45.710;9.590;2024-03-02T13:02:35;8.65;;;3.08;;
72949;SDS011;64868;45.710;9.590;2024-03-02T13:05:31;10.85;;;3.22;;
72949;SDS011;64868;45.710;9.590;2024-03-02T13:08:01;6.90;;;2.40;;
72949;SDS011;64868;45.710;9.590;2024-03-02T13:10:31;7.28;;;2.70;;
72949;SDS011;64868;45.710;9.590;2024-03-02T13:13:08;8.55;;;2.78;;
72949;SDS011;64868;45.710;9.590;2024-03-02T13:15:55;4.82;;;1.67;;
72949;SDS011;64868;45.710;9.590;2024-03-02T13:18:55;6.00;;;2.10;;
72949;SDS011;64868;45.710;9.590;2024-03-02T13:21:48;6.47;;;2.60;;
72949;SDS011;64868;45.710;9.590;2024-03-02T13:24:20;6.47;;;2.28;;
72949;SDS011;64868;45.710;9.590;2024-03-02T13:26:46;8.07;;;2.08;;
72949;SDS011;64868;45.710;9.590;2024-03-02T13:29:29;6.30;;;2.13;;
72949;SDS011;64868;45.710;9.590;2024-03-02T13:32:05;5.18;;;2.10;;
72949;SDS011;64868;45.710;9.590;2024-03-02T13:34:38;7.43;;;3.00;;
72949;SDS011;64868;45.710;9.590;2024-03-02T13:40:12;7.93;;;2.20;;
72949;SDS011;64868;45.710;9.590;2024-03-02T13:42:45;5.97;;;2.20;;
72949;SDS011;64868;45.710;9.590;2024-03-02T13:45:25;8.07;;;2.10;;
72949;SDS011;64868;45.710;9.590;2024-03-02T13:47:52;5.90;;;1.90;;
72949;SDS011;64868;45.710;9.590;2024-03-02T13:50:18;5.60;;;1.95;;
72949;SDS011;64868;45.710;9.590;2024-03-02T13:53:00;6.43;;;2.05;;
72949;SDS011;64868;45.710;9.590;2024-03-02T13:55:33;10.55;;;2.20;;
72949;SDS011;64868;45.710;9.590;2024-03-02T14:00:48;7.15;;;2.50;;
72949;SDS011;64868;45.710;9.590;2024-03-02T14:03:19;8.05;;;2.75;;
72949;SDS011;64868;45.710;9.590;2024-03-02T14:05:55;8.98;;;2.67;;
72949;SDS011;64868;45.710;9.590;2024-03-02T14:08:27;6.95;;;2.03;;
72949;SDS011;64868;45.710;9.590;2024-03-02T14:11:07;5.45;;;2.10;;
72949;SDS011;64868;45.710;9.590;2024-03-02T14:13:50;8.88;;;2.00;;
72949;SDS011;64868;45.710;9.590;2024-03-02T14:16:28;7.57;;;2.17;;
72949;SDS011;64868;45.710;9.590;2024-03-02T14:19:00;5.95;;;2.35;;
72949;SDS011;64868;45.710;9.590;2024-03-02T14:21:26;5.57;;;2.25;;
72949;SDS011;64868;45.710;9.590;2024-03-02T14:26:40;11.40;;;3.35;;
72949;SDS011;64868;45.710;9.590;2024-03-02T14:29:11;7.07;;;2.85;;
72949;SDS011;64868;45.710;9.590;2024-03-02T14:31:40;7.20;;;2.25;;
72949;SDS011;64868;45.710;9.590;2024-03-02T14:34:11;9.57;;;2.80;;
72949;SDS011;64868;45.710;9.590;2024-03-02T14:39:26;6.35;;;2.35;;
72949;SDS011;64868;45.710;9.590;2024-03-02T14:44:45;7.70;;;2.22;;
72949;SDS011;64868;45.710;9.590;2024-03-02T14:47:14;5.03;;;2.13;;
72949;SDS011;64868;45.710;9.590;2024-03-02T14:49:51;6.10;;;2.40;;
72949;SDS011;64868;45.710;9.590;2024-03-02T14:52:35;7.18;;;2.17;;
72949;SDS011;64868;45.710;9.590;2024-03-02T14:55:11;8.40;;;2.17;;
72949;SDS011;64868;45.710;9.590;2024-03-02T14:57:52;6.55;;;1.92;;
72949;SDS011;64868;45.710;9.590;2024-03-02T15:03:35;7.10;;;2.13;;
72949;SDS011;64868;45.710;9.590;2024-03-02T15:06:08;6.07;;;2.10;;
72949;SDS011;64868;45.710;9.590;2024-03-02T15:08:54;6.57;;;2.30;;
72949;SDS011;64868;45.710;9.590;2024-03-02T15:14:27;5.47;;;1.98;;
72949;SDS011;64868;45.710;9.590;2024-03-02T15:16:57;5.85;;;2.13;;
72949;SDS011;64868;45.710;9.590;2024-03-02T15:20:02;4.88;;;1.85;;
72949;SDS011;64868;45.710;9.590;2024-03-02T15:22:31;6.72;;;2.28;;
72949;SDS011;64868;45.710;9.590;2024-03-02T15:25:31;6.43;;;2.30;;
72949;SDS011;64868;45.710;9.590;2024-03-02T15:28:16;7.82;;;2.05;;
72949;SDS011;64868;45.710;9.590;2024-03-02T15:31:02;5.22;;;2.17;;
72949;SDS011;64868;45.710;9.590;2024-03-02T15:33:47;7.18;;;1.88;;
72949;SDS011;64868;45.710;9.590;2024-03-02T15:36:25;7.47;;;2.45;;
72949;SDS011;64868;45.710;9.590;2024-03-02T15:39:08;8.35;;;3.10;;
72949;SDS011;64868;45.710;9.590;2024-03-02T15:42:10;6.72;;;2.67;;
72949;SDS011;64868;45.710;9.590;2024-03-02T15:44:43;8.27;;;3.38;;
72949;SDS011;64868;45.710;9.590;2024-03-02T15:47:25;9.82;;;3.20;;
72949;SDS011;64868;45.710;9.590;2024-03-02T15:49:52;6.93;;;3.10;;
72949;SDS011;64868;45.710;9.590;2024-03-02T15:52:26;7.85;;;3.13;;
72949;SDS011;64868;45.710;9.590;2024-03-02T15:55:28;6.88;;;2.95;;
72949;SDS011;64868;45.710;9.590;2024-03-02T15:58:19;9.93;;;3.10;;
72949;SDS011;64868;45.710;9.590;2024-03-02T16:01:32;9.45;;;4.18;;
72949;SDS011;64868;45.710;9.590;2024-03-02T16:04:06;6.80;;;2.90;;
72949;SDS011;64868;45.710;9.590;2024-03-02T16:06:41;9.85;;;3.10;;
72949;SDS011;64868;45.710;9.590;2024-03-02T16:09:11;13.07;;;3.38;;
72949;SDS011;64868;45.710;9.590;2024-03-02T16:11:45;9.93;;;3.50;;
72949;SDS011;64868;45.710;9.590;2024-03-02T16:14:15;9.55;;;3.40;;
72949;SDS011;64868;45.710;9.590;2024-03-02T16:16:46;9.38;;;3.45;;
72949;SDS011;64868;45.710;9.590;2024-03-02T16:19:31;8.70;;;4.22;;
72949;SDS011;64868;45.710;9.590;2024-03-02T16:21:58;8.43;;;3.83;;
72949;SDS011;64868;45.710;9.590;2024-03-02T16:24:24;9.07;;;4.00;;
72949;SDS011;64868;45.710;9.590;2024-03-02T16:27:16;10.35;;;4.30;;
72949;SDS011;64868;45.710;9.590;2024-03-02T16:30:27;7.85;;;4.15;;
72949;SDS011;64868;45.710;9.590;2024-03-02T16:33:18;8.23;;;4.07;;
72949;SDS011;64868;45.710;9.590;2024-03-02T16:36:01;11.00;;;3.97;;
72949;SDS011;64868;45.710;9.590;2024-03-02T16:44:00;9.35;;;4.57;;
72949;SDS011;64868;45.710;9.590;2024-03-02T16:46:27;11.25;;;5.47;;
72949;SDS011;64868;45.710;9.590;2024-03-02T16:48:53;10.98;;;4.70;;
72949;SDS011;64868;45.710;9.590;2024-03-02T16:51:25;10.20;;;4.78;;
72949;SDS011;64868;45.710;9.590;2024-03-02T16:53:53;10.77;;;4.65;;
72949;SDS011;64868;45.710;9.590;2024-03-02T16:56:19;10.70;;;4.68;;
72949;SDS011;64868;45.710;9.590;2024-03-02T16:58:45;10.00;;;4.78;;
72949;SDS011;64868;45.710;9.590;2024-03-02T17:01:11;9.38;;;4.60;;
72949;SDS011;64868;45.710;9.590;2024-03-02T17:03:40;9.43;;;4.80;;
72949;SDS011;64868;45.710;9.590;2024-03-02T17:06:06;9.45;;;4.85;;
72949;SDS011;64868;45.710;9.590;2024-03-02T17:11:25;10.00;;;5.07;;
72949;SDS011;64868;45.710;9.590;2024-03-02T17:13:58;10.02;;;5.20;;
72949;SDS011;64868;45.710;9.590;2024-03-02T17:16:24;9.20;;;4.75;;
72949;SDS011;64868;45.710;9.590;2024-03-02T17:18:50;12.80;;;5.93;;
72949;SDS011;64868;45.710;9.590;2024-03-02T17:21:17;12.00;;;5.60;;
72949;SDS011;64868;45.710;9.590;2024-03-02T17:23:43;10.93;;;6.35;;
72949;SDS011;64868;45.710;9.590;2024-03-02T17:26:13;10.05;;;6.40;;
72949;SDS011;64868;45.710;9.590;2024-03-02T17:32:01;10.80;;;5.97;;
72949;SDS011;64868;45.710;9.590;2024-03-02T17:34:37;10.77;;;5.60;;
72949;SDS011;64868;45.710;9.590;2024-03-02T17:37:34;9.98;;;6.15;;
72949;SDS011;64868;45.710;9.590;2024-03-02T17:40:09;11.10;;;7.30;;
72949;SDS011;64868;45.710;9.590;2024-03-02T17:42:40;12.32;;;7.72;;
72949;SDS011;64868;45.710;9.590;2024-03-02T17:45:22;10.93;;;6.70;;
72949;SDS011;64868;45.710;9.590;2024-03-02T17:47:56;12.55;;;6.85;;
72949;SDS011;64868;45.710;9.590;2024-03-02T17:50:37;13.23;;;7.10;;
72949;SDS011;64868;45.710;9.590;2024-03-02T17:53:08;12.45;;;7.55;;
72949;SDS011;64868;45.710;9.590;2024-03-02T17:55:47;14.35;;;8.27;;
72949;SDS011;64868;45.710;9.590;2024-03-02T17:58:15;12.95;;;8.02;;
72949;SDS011;64868;45.710;9.590;2024-03-02T18:00:42;15.00;;;8.40;;
72949;SDS011;64868;45.710;9.590;2024-03-02T18:03:16;12.88;;;8.27;;
72949;SDS011;64868;45.710;9.590;2024-03-02T18:05:48;13.50;;;7.75;;
72949;SDS011;64868;45.710;9.590;2024-03-02T18:10:56;16.00;;;9.75;;
72949;SDS011;64868;45.710;9.590;2024-03-02T18:13:44;17.02;;;9.82;;
72949;SDS011;64868;45.710;9.590;2024-03-02T18:16:26;17.35;;;10.43;;
72949;SDS011;64868;45.710;9.590;2024-03-02T18:19:16;19.77;;;9.77;;
72949;SDS011;64868;45.710;9.590;2024-03-02T18:21:57;15.85;;;9.63;;
72949;SDS011;64868;45.710;9.590;2024-03-02T18:24:36;16.48;;;10.10;;
72949;SDS011;64868;45.710;9.590;2024-03-02T18:27:14;17.67;;;9.90;;
72949;SDS011;64868;45.710;9.590;2024-03-02T18:29:49;15.30;;;10.20;;
72949;SDS011;64868;45.710;9.590;2024-03-02T18:32:19;13.63;;;9.88;;
72949;SDS011;64868;45.710;9.590;2024-03-02T18:37:27;18.52;;;9.98;;
72949;SDS011;64868;45.710;9.590;2024-03-02T18:40:06;16.27;;;10.80;;
72949;SDS011;64868;45.710;9.590;2024-03-02T18:42:34;16.17;;;9.82;;
72949;SDS011;64868;45.710;9.590;2024-03-02T18:45:06;14.98;;;10.07;;
72949;SDS011;64868;45.710;9.590;2024-03-02T18:47:52;14.90;;;9.23;;
72949;SDS011;64868;45.710;9.590;2024-03-02T18:53:25;14.77;;;8.82;;
72949;SDS011;64868;45.710;9.590;2024-03-02T18:56:02;16.42;;;8.85;;
72949;SDS011;64868;45.710;9.590;2024-03-02T18:58:29;14.00;;;9.60;;
72949;SDS011;64868;45.710;9.590;2024-03-02T19:04:18;11.30;;;6.93;;
72949;SDS011;64868;45.710;9.590;2024-03-02T19:07:00;10.60;;;6.40;;
72949;SDS011;64868;45.710;9.590;2024-03-02T19:12:33;8.50;;;4.47;;
72949;SDS011;64868;45.710;9.590;2024-03-02T19:15:27;9.35;;;4.25;;
72949;SDS011;64868;45.710;9.590;2024-03-02T19:18:09;8.30;;;4.10;;
72949;SDS011;64868;45.710;9.590;2024-03-02T19:20:35;9.23;;;4.40;;
72949;SDS011;64868;45.710;9.590;2024-03-02T19:23:05;9.57;;;4.18;;
72949;SDS011;64868;45.710;9.590;2024-03-02T19:26:03;10.13;;;4.32;;
72949;SDS011;64868;45.710;9.590;2024-03-02T19:28:48;9.57;;;4.47;;
72949;SDS011;64868;45.710;9.590;2024-03-02T19:34:36;9.40;;;4.38;;
72949;SDS011;64868;45.710;9.590;2024-03-02T19:37:04;8.90;;;4.05;;
72949;SDS011;64868;45.710;9.590;2024-03-02T19:49:25;9.90;;;5.00;;
72949;SDS011;64868;45.710;9.590;2024-03-02T20:03:18;10.52;;;6.35;;